sensor_id;sensor_type;location;lat;lon;timestamp;P1;durP1;ratioP1;P2;durP2;ratioP2
5801;SDS011;2927;49.366;8.530;2023-04-29T00:00:23;12.13;;;7.73;;
5801;SDS011;2927;49.366;8.530;2023-04-29T00:02:49;12.77;;;8.27;;
5801;SDS011;2927;49.366;8.530;2023-04-29T00:05:14;8.17;;;7.30;;
5801;SDS011;2927;49.366;8.530;2023-04-29T00:07:40;8.80;;;6.43;;
5801;SDS011;2927;49.366;8.530;2023-04-29T00:10:06;12.90;;;7.07;;
5801;SDS011;2927;49.366;8.530;2023-04-29T00:12:32;10.67;;;7.53;;
5801;SDS011;2927;49.366;8.530;2023-04-29T00:14:57;12.17;;;7.10;;
5801;SDS011;2927;49.366;8.530;2023-04-29T00:17:24;11.03;;;7.57;;
5801;SDS011;2927;49.366;8.530;2023-04-29T00:19:50;9.33;;;7.67;;
5801;SDS011;2927;49.366;8.530;2023-04-29T00:22:16;11.90;;;7.77;;
5801;SDS011;2927;49.366;8.530;2023-04-29T00:24:41;10.60;;;7.40;;
5801;SDS011;2927;49.366;8.530;2023-04-29T00:27:07;10.47;;;7.63;;
5801;SDS011;2927;49.366;8.530;2023-04-29T00:29:32;16.90;;;10.07;;
5801;SDS011;2927;49.366;8.530;2023-04-29T00:31:58;12.90;;;9.23;;
5801;SDS011;2927;49.366;8.530;2023-04-29T00:34:23;14.83;;;9.40;;
5801;SDS011;2927;49.366;8.530;2023-04-29T00:36:49;14.10;;;8.93;;
5801;SDS011;2927;49.366;8.530;2023-04-29T00:39:15;11.63;;;8.03;;
5801;SDS011;2927;49.366;8.530;2023-04-29T00:41:40;14.37;;;9.87;;
5801;SDS011;2927;49.366;8.530;2023-04-29T00:44:06;12.23;;;8.60;;
5801;SDS011;2927;49.366;8.530;2023-04-29T00:46:32;14.93;;;8.17;;
5801;SDS011;2927;49.366;8.530;2023-04-29T00:48:57;16.57;;;8.90;;
5801;SDS011;2927;49.366;8.530;2023-04-29T00:51:24;15.93;;;11.10;;
5801;SDS011;2927;49.366;8.530;2023-04-29T00:53:50;13.10;;;9.17;;
5801;SDS011;2927;49.366;8.530;2023-04-29T00:56:15;15.30;;;8.63;;
5801;SDS011;2927;49.366;8.530;2023-04-29T00:58:42;13.20;;;8.73;;
5801;SDS011;2927;49.366;8.530;2023-04-29T01:01:13;10.23;;;9.20;;
5801;SDS011;2927;49.366;8.530;2023-04-29T01:03:43;11.83;;;8.80;;
5801;SDS011;2927;49.366;8.530;2023-04-29T01:06:12;11.67;;;8.20;;
5801;SDS011;2927;49.366;8.530;2023-04-29T01:14:32;13.90;;;9.27;;
5801;SDS011;2927;49.366;8.530;2023-04-29T01:16:59;8.70;;;7.80;;
5801;SDS011;2927;49.366;8.530;2023-04-29T01:19:39;8.83;;;7.30;;
5801;SDS011;2927;49.366;8.530;2023-04-29T01:22:16;16.43;;;9.87;;
5801;SDS011;2927;49.366;8.530;2023-04-29T01:24:43;17.30;;;11.20;;
5801;SDS011;2927;49.366;8.530;2023-04-29T01:27:29;13.43;;;9.30;;
5801;SDS011;2927;49.366;8.530;2023-04-29T01:30:03;13.27;;;9.17;;
5801;SDS011;2927;49.366;8.530;2023-04-29T01:32:52;10.20;;;7.70;;
5801;SDS011;2927;49.366;8.530;2023-04-29T01:35:47;14.20;;;8.73;;
5801;SDS011;2927;49.366;8.530;2023-04-29T01:38:36;14.10;;;8.17;;
5801;SDS011;2927;49.366;8.530;2023-04-29T01:41:18;10.47;;;7.93;;
5801;SDS011;2927;49.366;8.530;2023-04-29T01:43:52;9.60;;;7.53;;
5801;SDS011;2927;49.366;8.530;2023-04-29T01:46:20;9.60;;;7.17;;
5801;SDS011;2927;49.366;8.530;2023-04-29T01:48:46;12.00;;;8.43;;
5801;SDS011;2927;49.366;8.530;2023-04-29T01:51:11;9.00;;;7.60;;
5801;SDS011;2927;49.366;8.530;2023-04-29T01:53:37;10.60;;;7.60;;
5801;SDS011;2927;49.366;8.530;2023-04-29T01:56:08;9.30;;;7.47;;
5801;SDS011;2927;49.366;8.530;2023-04-29T01:58:34;11.70;;;7.17;;
5801;SDS011;2927;49.366;8.530;2023-04-29T02:01:00;7.50;;;6.40;;
5801;SDS011;2927;49.366;8.530;2023-04-29T02:03:25;12.73;;;7.00;;
5801;SDS011;2927;49.366;8.530;2023-04-29T02:05:51;9.77;;;7.17;;
5801;SDS011;2927;49.366;8.530;2023-04-29T02:08:17;7.90;;;6.90;;
5801;SDS011;2927;49.366;8.530;2023-04-29T02:10:52;9.57;;;7.00;;
5801;SDS011;2927;49.366;8.530;2023-04-29T02:13:21;8.30;;;7.47;;
5801;SDS011;2927;49.366;8.530;2023-04-29T02:15:47;10.03;;;8.10;;
5801;SDS011;2927;49.366;8.530;2023-04-29T02:18:13;14.00;;;8.80;;
5801;SDS011;2927;49.366;8.530;2023-04-29T02:20:38;9.60;;;7.50;;
5801;SDS011;2927;49.366;8.530;2023-04-29T02:23:04;10.97;;;8.63;;
5801;SDS011;2927;49.366;8.530;2023-04-29T02:25:29;12.87;;;9.67;;
5801;SDS011;2927;49.366;8.530;2023-04-29T02:27:55;10.73;;;8.40;;
5801;SDS011;2927;49.366;8.530;2023-04-29T02:30:20;13.03;;;7.97;;
5801;SDS011;2927;49.366;8.530;2023-04-29T02:32:46;8.97;;;8.07;;
5801;SDS011;2927;49.366;8.530;2023-04-29T02:35:11;24.47;;;8.13;;
5801;SDS011;2927;49.366;8.530;2023-04-29T02:37:37;18.07;;;9.80;;
5801;SDS011;2927;49.366;8.530;2023-04-29T02:40:03;11.47;;;9.63;;
5801;SDS011;2927;49.366;8.530;2023-04-29T02:42:29;12.10;;;8.73;;
5801;SDS011;2927;49.366;8.530;2023-04-29T02:44:55;11.37;;;8.73;;
5801;SDS011;2927;49.366;8.530;2023-04-29T02:47:21;11.97;;;8.63;;
5801;SDS011;2927;49.366;8.530;2023-04-29T02:49:46;10.40;;;6.67;;
5801;SDS011;2927;49.366;8.530;2023-04-29T02:52:12;12.83;;;8.70;;
5801;SDS011;2927;49.366;8.530;2023-04-29T02:54:37;12.50;;;7.73;;
5801;SDS011;2927;49.366;8.530;2023-04-29T02:57:03;7.97;;;6.90;;
5801;SDS011;2927;49.366;8.530;2023-04-29T02:59:28;8.20;;;6.57;;
5801;SDS011;2927;49.366;8.530;2023-04-29T03:01:54;11.40;;;7.87;;
5801;SDS011;2927;49.366;8.530;2023-04-29T03:04:19;7.73;;;6.53;;
5801;SDS011;2927;49.366;8.530;2023-04-29T03:06:45;7.73;;;5.90;;
5801;SDS011;2927;49.366;8.530;2023-04-29T03:09:11;6.47;;;5.63;;
5801;SDS011;2927;49.366;8.530;2023-04-29T03:11:37;5.67;;;5.17;;
5801;SDS011;2927;49.366;8.530;2023-04-29T03:14:03;5.90;;;5.40;;
5801;SDS011;2927;49.366;8.530;2023-04-29T03:16:29;6.60;;;6.00;;
5801;SDS011;2927;49.366;8.530;2023-04-29T03:18:55;5.43;;;4.93;;
5801;SDS011;2927;49.366;8.530;2023-04-29T03:21:21;5.53;;;5.13;;
5801;SDS011;2927;49.366;8.530;2023-04-29T03:23:49;6.13;;;3.80;;
5801;SDS011;2927;49.366;8.530;2023-04-29T03:26:14;5.73;;;3.80;;
5801;SDS011;2927;49.366;8.530;2023-04-29T03:28:40;3.50;;;3.20;;
5801;SDS011;2927;49.366;8.530;2023-04-29T03:31:06;4.83;;;4.33;;
5801;SDS011;2927;49.366;8.530;2023-04-29T03:33:31;5.70;;;3.50;;
5801;SDS011;2927;49.366;8.530;2023-04-29T03:35:57;4.50;;;4.10;;
5801;SDS011;2927;49.366;8.530;2023-04-29T03:38:22;8.93;;;3.67;;
5801;SDS011;2927;49.366;8.530;2023-04-29T03:40:49;3.80;;;3.50;;
5801;SDS011;2927;49.366;8.530;2023-04-29T03:43:15;4.27;;;3.50;;
5801;SDS011;2927;49.366;8.530;2023-04-29T03:45:41;3.83;;;3.50;;
5801;SDS011;2927;49.366;8.530;2023-04-29T03:48:06;4.00;;;3.50;;
5801;SDS011;2927;49.366;8.530;2023-04-29T03:50:32;3.37;;;3.07;;
5801;SDS011;2927;49.366;8.530;2023-04-29T03:52:58;4.13;;;3.77;;
5801;SDS011;2927;49.366;8.530;2023-04-29T03:55:23;6.07;;;4.00;;
5801;SDS011;2927;49.366;8.530;2023-04-29T03:57:49;3.93;;;3.63;;
5801;SDS011;2927;49.366;8.530;2023-04-29T04:00:14;3.97;;;3.53;;
5801;SDS011;2927;49.366;8.530;2023-04-29T04:02:41;3.40;;;3.20;;
5801;SDS011;2927;49.366;8.530;2023-04-29T04:05:06;6.93;;;4.13;;
5801;SDS011;2927;49.366;8.530;2023-04-29T04:07:32;12.67;;;5.50;;
5801;SDS011;2927;49.366;8.530;2023-04-29T04:09:57;7.53;;;5.53;;
5801;SDS011;2927;49.366;8.530;2023-04-29T04:12:23;5.30;;;4.80;;
5801;SDS011;2927;49.366;8.530;2023-04-29T04:14:48;4.00;;;3.73;;
5801;SDS011;2927;49.366;8.530;2023-04-29T04:17:14;4.97;;;4.57;;
5801;SDS011;2927;49.366;8.530;2023-04-29T04:19:39;5.90;;;3.97;;
5801;SDS011;2927;49.366;8.530;2023-04-29T04:22:05;4.47;;;3.07;;
5801;SDS011;2927;49.366;8.530;2023-04-29T04:24:31;5.87;;;3.33;;
5801;SDS011;2927;49.366;8.530;2023-04-29T04:26:57;3.77;;;3.47;;
5801;SDS011;2927;49.366;8.530;2023-04-29T04:29:22;3.20;;;2.97;;
5801;SDS011;2927;49.366;8.530;2023-04-29T04:31:48;3.70;;;2.80;;
5801;SDS011;2927;49.366;8.530;2023-04-29T04:34:13;2.93;;;2.73;;
5801;SDS011;2927;49.366;8.530;2023-04-29T04:36:39;3.60;;;2.60;;
5801;SDS011;2927;49.366;8.530;2023-04-29T04:39:05;2.30;;;2.13;;
5801;SDS011;2927;49.366;8.530;2023-04-29T04:41:30;4.23;;;2.57;;
5801;SDS011;2927;49.366;8.530;2023-04-29T04:43:56;3.27;;;2.23;;
5801;SDS011;2927;49.366;8.530;2023-04-29T04:46:22;7.07;;;5.63;;
5801;SDS011;2927;49.366;8.530;2023-04-29T04:48:47;6.47;;;5.73;;
5801;SDS011;2927;49.366;8.530;2023-04-29T04:51:13;6.33;;;3.27;;
5801;SDS011;2927;49.366;8.530;2023-04-29T04:53:39;2.80;;;2.60;;
5801;SDS011;2927;49.366;8.530;2023-04-29T04:56:04;2.70;;;2.50;;
5801;SDS011;2927;49.366;8.530;2023-04-29T04:58:31;2.90;;;2.60;;
5801;SDS011;2927;49.366;8.530;2023-04-29T05:00:57;4.33;;;2.70;;
5801;SDS011;2927;49.366;8.530;2023-04-29T05:03:23;2.20;;;2.00;;
5801;SDS011;2927;49.366;8.530;2023-04-29T05:05:53;2.33;;;2.23;;
5801;SDS011;2927;49.366;8.530;2023-04-29T05:08:19;5.90;;;3.33;;
5801;SDS011;2927;49.366;8.530;2023-04-29T05:10:45;7.63;;;3.80;;
5801;SDS011;2927;49.366;8.530;2023-04-29T05:13:11;4.07;;;3.57;;
5801;SDS011;2927;49.366;8.530;2023-04-29T05:15:37;3.20;;;3.00;;
5801;SDS011;2927;49.366;8.530;2023-04-29T05:18:02;10.87;;;2.53;;
5801;SDS011;2927;49.366;8.530;2023-04-29T05:20:28;2.67;;;2.50;;
5801;SDS011;2927;49.366;8.530;2023-04-29T05:22:53;8.33;;;2.23;;
5801;SDS011;2927;49.366;8.530;2023-04-29T05:25:19;2.17;;;2.07;;
5801;SDS011;2927;49.366;8.530;2023-04-29T05:27:44;1.90;;;1.90;;
5801;SDS011;2927;49.366;8.530;2023-04-29T05:30:10;3.60;;;2.10;;
5801;SDS011;2927;49.366;8.530;2023-04-29T05:32:36;2.67;;;1.80;;
5801;SDS011;2927;49.366;8.530;2023-04-29T05:35:02;2.70;;;2.00;;
5801;SDS011;2927;49.366;8.530;2023-04-29T05:37:28;2.13;;;1.60;;
5801;SDS011;2927;49.366;8.530;2023-04-29T05:39:55;6.37;;;1.73;;
5801;SDS011;2927;49.366;8.530;2023-04-29T05:42:21;3.20;;;2.13;;
5801;SDS011;2927;49.366;8.530;2023-04-29T05:44:47;1.77;;;1.67;;
5801;SDS011;2927;49.366;8.530;2023-04-29T05:47:16;2.20;;;1.57;;
5801;SDS011;2927;49.366;8.530;2023-04-29T05:49:42;2.60;;;2.40;;
5801;SDS011;2927;49.366;8.530;2023-04-29T05:52:07;2.03;;;1.93;;
5801;SDS011;2927;49.366;8.530;2023-04-29T05:54:33;1.67;;;1.57;;
5801;SDS011;2927;49.366;8.530;2023-04-29T05:56:59;1.80;;;1.50;;
5801;SDS011;2927;49.366;8.530;2023-04-29T05:59:28;1.70;;;1.70;;
5801;SDS011;2927;49.366;8.530;2023-04-29T06:01:55;1.53;;;1.43;;
5801;SDS011;2927;49.366;8.530;2023-04-29T06:04:21;1.33;;;1.23;;
5801;SDS011;2927;49.366;8.530;2023-04-29T06:06:46;1.77;;;1.67;;
5801;SDS011;2927;49.366;8.530;2023-04-29T06:09:12;1.77;;;1.67;;
5801;SDS011;2927;49.366;8.530;2023-04-29T06:11:42;2.10;;;2.00;;
5801;SDS011;2927;49.366;8.530;2023-04-29T06:14:08;1.77;;;1.57;;
5801;SDS011;2927;49.366;8.530;2023-04-29T06:16:34;2.07;;;1.77;;
5801;SDS011;2927;49.366;8.530;2023-04-29T06:19:00;3.43;;;1.53;;
5801;SDS011;2927;49.366;8.530;2023-04-29T06:21:26;6.13;;;2.00;;
5801;SDS011;2927;49.366;8.530;2023-04-29T06:23:52;1.30;;;1.20;;
5801;SDS011;2927;49.366;8.530;2023-04-29T06:26:20;1.47;;;1.37;;
5801;SDS011;2927;49.366;8.530;2023-04-29T06:28:46;1.80;;;1.70;;
5801;SDS011;2927;49.366;8.530;2023-04-29T06:31:12;1.63;;;1.40;;
5801;SDS011;2927;49.366;8.530;2023-04-29T06:33:37;2.60;;;1.63;;
5801;SDS011;2927;49.366;8.530;2023-04-29T06:36:03;6.23;;;1.60;;
5801;SDS011;2927;49.366;8.530;2023-04-29T06:38:29;3.43;;;1.30;;
5801;SDS011;2927;49.366;8.530;2023-04-29T06:40:55;5.37;;;1.87;;
5801;SDS011;2927;49.366;8.530;2023-04-29T06:43:24;9.60;;;1.90;;
5801;SDS011;2927;49.366;8.530;2023-04-29T06:45:53;2.20;;;1.70;;
5801;SDS011;2927;49.366;8.530;2023-04-29T06:48:18;2.43;;;1.73;;
5801;SDS011;2927;49.366;8.530;2023-04-29T06:50:48;2.30;;;1.70;;
5801;SDS011;2927;49.366;8.530;2023-04-29T06:53:17;6.90;;;1.80;;
5801;SDS011;2927;49.366;8.530;2023-04-29T06:55:43;3.67;;;2.30;;
5801;SDS011;2927;49.366;8.530;2023-04-29T06:58:10;2.63;;;2.43;;
5801;SDS011;2927;49.366;8.530;2023-04-29T07:00:36;2.67;;;2.03;;
5801;SDS011;2927;49.366;8.530;2023-04-29T07:03:02;1.80;;;1.70;;
5801;SDS011;2927;49.366;8.530;2023-04-29T07:05:27;3.10;;;2.30;;
5801;SDS011;2927;49.366;8.530;2023-04-29T07:07:53;5.10;;;2.20;;
5801;SDS011;2927;49.366;8.530;2023-04-29T07:10:18;4.87;;;2.00;;
5801;SDS011;2927;49.366;8.530;2023-04-29T07:12:44;2.30;;;2.10;;
5801;SDS011;2927;49.366;8.530;2023-04-29T07:15:09;2.17;;;2.07;;
5801;SDS011;2927;49.366;8.530;2023-04-29T07:17:35;3.13;;;2.83;;
5801;SDS011;2927;49.366;8.530;2023-04-29T07:20:01;2.90;;;2.63;;
5801;SDS011;2927;49.366;8.530;2023-04-29T07:22:28;6.00;;;3.00;;
5801;SDS011;2927;49.366;8.530;2023-04-29T07:24:53;4.37;;;3.70;;
5801;SDS011;2927;49.366;8.530;2023-04-29T07:27:19;3.70;;;3.43;;
5801;SDS011;2927;49.366;8.530;2023-04-29T07:29:45;2.97;;;2.77;;
5801;SDS011;2927;49.366;8.530;2023-04-29T07:32:11;6.40;;;5.13;;
5801;SDS011;2927;49.366;8.530;2023-04-29T07:34:37;5.77;;;5.27;;
5801;SDS011;2927;49.366;8.530;2023-04-29T07:37:02;8.50;;;5.83;;
5801;SDS011;2927;49.366;8.530;2023-04-29T07:39:28;7.87;;;6.23;;
5801;SDS011;2927;49.366;8.530;2023-04-29T07:41:54;12.20;;;8.20;;
5801;SDS011;2927;49.366;8.530;2023-04-29T07:44:20;13.00;;;8.03;;
5801;SDS011;2927;49.366;8.530;2023-04-29T07:46:46;13.27;;;9.20;;
5801;SDS011;2927;49.366;8.530;2023-04-29T07:49:11;14.50;;;10.93;;
5801;SDS011;2927;49.366;8.530;2023-04-29T07:51:39;17.70;;;10.50;;
5801;SDS011;2927;49.366;8.530;2023-04-29T07:54:06;16.70;;;11.43;;
5801;SDS011;2927;49.366;8.530;2023-04-29T07:56:31;13.40;;;10.93;;
5801;SDS011;2927;49.366;8.530;2023-04-29T07:58:58;15.77;;;10.27;;
5801;SDS011;2927;49.366;8.530;2023-04-29T08:01:25;16.70;;;11.87;;
5801;SDS011;2927;49.366;8.530;2023-04-29T08:03:50;13.07;;;10.90;;
5801;SDS011;2927;49.366;8.530;2023-04-29T08:06:16;21.07;;;12.70;;
5801;SDS011;2927;49.366;8.530;2023-04-29T08:08:44;18.93;;;11.13;;
5801;SDS011;2927;49.366;8.530;2023-04-29T08:11:19;17.17;;;11.37;;
5801;SDS011;2927;49.366;8.530;2023-04-29T08:13:45;17.13;;;11.73;;
5801;SDS011;2927;49.366;8.530;2023-04-29T08:16:11;17.37;;;12.20;;
5801;SDS011;2927;49.366;8.530;2023-04-29T08:18:38;20.00;;;11.43;;
5801;SDS011;2927;49.366;8.530;2023-04-29T08:21:04;15.50;;;10.87;;
5801;SDS011;2927;49.366;8.530;2023-04-29T08:23:30;15.70;;;10.97;;
5801;SDS011;2927;49.366;8.530;2023-04-29T08:25:56;14.37;;;8.80;;
5801;SDS011;2927;49.366;8.530;2023-04-29T08:28:21;16.27;;;10.10;;
5801;SDS011;2927;49.366;8.530;2023-04-29T08:30:47;13.53;;;9.23;;
5801;SDS011;2927;49.366;8.530;2023-04-29T08:33:13;16.53;;;9.57;;
5801;SDS011;2927;49.366;8.530;2023-04-29T08:35:38;14.80;;;10.50;;
5801;SDS011;2927;49.366;8.530;2023-04-29T08:38:04;13.90;;;8.60;;
5801;SDS011;2927;49.366;8.530;2023-04-29T08:40:32;10.30;;;7.53;;
5801;SDS011;2927;49.366;8.530;2023-04-29T08:43:06;11.20;;;7.97;;
5801;SDS011;2927;49.366;8.530;2023-04-29T08:45:33;13.43;;;7.80;;
5801;SDS011;2927;49.366;8.530;2023-04-29T08:48:01;11.60;;;8.00;;
5801;SDS011;2927;49.366;8.530;2023-04-29T08:50:28;10.33;;;7.30;;
5801;SDS011;2927;49.366;8.530;2023-04-29T08:52:55;9.83;;;7.63;;
5801;SDS011;2927;49.366;8.530;2023-04-29T08:55:21;11.43;;;7.83;;
5801;SDS011;2927;49.366;8.530;2023-04-29T08:57:48;11.70;;;8.33;;
5801;SDS011;2927;49.366;8.530;2023-04-29T09:00:18;14.00;;;7.47;;
5801;SDS011;2927;49.366;8.530;2023-04-29T09:02:46;12.63;;;8.10;;
5801;SDS011;2927;49.366;8.530;2023-04-29T09:05:14;12.03;;;8.20;;
5801;SDS011;2927;49.366;8.530;2023-04-29T09:07:40;11.13;;;6.90;;
5801;SDS011;2927;49.366;8.530;2023-04-29T09:10:06;11.67;;;8.57;;
5801;SDS011;2927;49.366;8.530;2023-04-29T09:12:33;9.47;;;7.07;;
5801;SDS011;2927;49.366;8.530;2023-04-29T09:15:00;13.33;;;8.20;;
5801;SDS011;2927;49.366;8.530;2023-04-29T09:17:42;11.67;;;7.77;;
5801;SDS011;2927;49.366;8.530;2023-04-29T09:22:51;11.00;;;7.93;;
5801;SDS011;2927;49.366;8.530;2023-04-29T09:25:17;8.97;;;7.27;;
5801;SDS011;2927;49.366;8.530;2023-04-29T09:27:43;11.03;;;7.50;;
5801;SDS011;2927;49.366;8.530;2023-04-29T09:30:09;10.60;;;7.97;;
5801;SDS011;2927;49.366;8.530;2023-04-29T09:32:36;11.00;;;8.13;;
5801;SDS011;2927;49.366;8.530;2023-04-29T09:37:51;8.97;;;6.67;;
5801;SDS011;2927;49.366;8.530;2023-04-29T09:40:33;9.23;;;7.20;;
5801;SDS011;2927;49.366;8.530;2023-04-29T09:42:59;11.50;;;7.60;;
5801;SDS011;2927;49.366;8.530;2023-04-29T09:45:35;10.90;;;7.30;;
5801;SDS011;2927;49.366;8.530;2023-04-29T09:48:04;12.37;;;8.20;;
5801;SDS011;2927;49.366;8.530;2023-04-29T09:50:33;11.57;;;7.53;;
5801;SDS011;2927;49.366;8.530;2023-04-29T09:53:03;11.43;;;7.47;;
5801;SDS011;2927;49.366;8.530;2023-04-29T09:56:18;9.70;;;7.87;;
5801;SDS011;2927;49.366;8.530;2023-04-29T09:58:26;10.90;;;7.70;;
5801;SDS011;2927;49.366;8.530;2023-04-29T10:00:58;8.20;;;6.83;;
5801;SDS011;2927;49.366;8.530;2023-04-29T10:03:26;8.67;;;7.17;;
5801;SDS011;2927;49.366;8.530;2023-04-29T10:05:57;9.63;;;6.60;;
5801;SDS011;2927;49.366;8.530;2023-04-29T10:08:23;10.43;;;6.83;;
5801;SDS011;2927;49.366;8.530;2023-04-29T10:10:49;7.50;;;5.77;;
5801;SDS011;2927;49.366;8.530;2023-04-29T10:13:21;6.53;;;5.80;;
5801;SDS011;2927;49.366;8.530;2023-04-29T10:15:48;5.97;;;5.37;;
5801;SDS011;2927;49.366;8.530;2023-04-29T10:18:23;8.27;;;5.80;;
5801;SDS011;2927;49.366;8.530;2023-04-29T10:20:52;6.83;;;5.40;;
5801;SDS011;2927;49.366;8.530;2023-04-29T10:23:20;7.17;;;5.77;;
5801;SDS011;2927;49.366;8.530;2023-04-29T10:25:47;8.03;;;5.63;;
5801;SDS011;2927;49.366;8.530;2023-04-29T10:28:16;4.77;;;4.30;;
5801;SDS011;2927;49.366;8.530;2023-04-29T10:30:44;6.17;;;4.83;;
5801;SDS011;2927;49.366;8.530;2023-04-29T10:33:14;6.90;;;5.20;;
5801;SDS011;2927;49.366;8.530;2023-04-29T10:35:41;5.87;;;4.47;;
5801;SDS011;2927;49.366;8.530;2023-04-29T10:38:28;5.00;;;4.47;;
5801;SDS011;2927;49.366;8.530;2023-04-29T10:41:19;5.83;;;4.77;;
5801;SDS011;2927;49.366;8.530;2023-04-29T10:43:59;5.23;;;4.70;;
5801;SDS011;2927;49.366;8.530;2023-04-29T10:46:25;4.50;;;4.10;;
5801;SDS011;2927;49.366;8.530;2023-04-29T10:49:01;7.83;;;4.43;;
5801;SDS011;2927;49.366;8.530;2023-04-29T10:53:57;15.50;;;6.37;;
5801;SDS011;2927;49.366;8.530;2023-04-29T10:59:21;6.50;;;5.90;;
5801;SDS011;2927;49.366;8.530;2023-04-29T11:01:53;7.90;;;6.03;;
5801;SDS011;2927;49.366;8.530;2023-04-29T11:04:19;6.63;;;5.57;;
5801;SDS011;2927;49.366;8.530;2023-04-29T11:07:06;7.67;;;6.30;;
5801;SDS011;2927;49.366;8.530;2023-04-29T11:09:34;6.20;;;5.60;;
5801;SDS011;2927;49.366;8.530;2023-04-29T11:12:06;10.50;;;6.47;;
5801;SDS011;2927;49.366;8.530;2023-04-29T11:17:09;8.50;;;6.60;;
5801;SDS011;2927;49.366;8.530;2023-04-29T11:19:41;7.50;;;6.33;;
5801;SDS011;2927;49.366;8.530;2023-04-29T11:22:13;6.73;;;5.77;;
5801;SDS011;2927;49.366;8.530;2023-04-29T11:24:55;6.93;;;6.23;;
5801;SDS011;2927;49.366;8.530;2023-04-29T11:27:38;7.23;;;6.33;;
5801;SDS011;2927;49.366;8.530;2023-04-29T11:30:05;7.40;;;5.17;;
5801;SDS011;2927;49.366;8.530;2023-04-29T11:32:40;7.37;;;5.47;;
5801;SDS011;2927;49.366;8.530;2023-04-29T11:37:39;6.57;;;5.50;;
5801;SDS011;2927;49.366;8.530;2023-04-29T11:40:06;5.57;;;4.60;;
5801;SDS011;2927;49.366;8.530;2023-04-29T11:42:33;4.83;;;4.17;;
5801;SDS011;2927;49.366;8.530;2023-04-29T11:45:00;9.90;;;5.07;;
5801;SDS011;2927;49.366;8.530;2023-04-29T11:47:29;5.37;;;4.37;;
5801;SDS011;2927;49.366;8.530;2023-04-29T11:50:14;4.87;;;4.40;;
5801;SDS011;2927;49.366;8.530;2023-04-29T11:52:43;5.73;;;4.70;;
5801;SDS011;2927;49.366;8.530;2023-04-29T11:55:10;8.20;;;5.40;;
5801;SDS011;2927;49.366;8.530;2023-04-29T11:57:37;4.80;;;4.30;;
5801;SDS011;2927;49.366;8.530;2023-04-29T12:00:09;7.43;;;5.60;;
5801;SDS011;2927;49.366;8.530;2023-04-29T12:02:38;5.43;;;4.80;;
5801;SDS011;2927;49.366;8.530;2023-04-29T12:05:07;6.53;;;5.50;;
5801;SDS011;2927;49.366;8.530;2023-04-29T12:07:36;5.97;;;5.33;;
5801;SDS011;2927;49.366;8.530;2023-04-29T12:10:04;13.00;;;5.20;;
5801;SDS011;2927;49.366;8.530;2023-04-29T12:12:35;7.03;;;5.50;;
5801;SDS011;2927;49.366;8.530;2023-04-29T12:15:04;5.33;;;4.70;;
5801;SDS011;2927;49.366;8.530;2023-04-29T12:17:31;5.13;;;4.27;;
5801;SDS011;2927;49.366;8.530;2023-04-29T12:19:57;5.03;;;4.63;;
5801;SDS011;2927;49.366;8.530;2023-04-29T12:22:29;4.40;;;4.00;;
5801;SDS011;2927;49.366;8.530;2023-04-29T12:24:56;3.70;;;3.40;;
5801;SDS011;2927;49.366;8.530;2023-04-29T12:27:21;5.30;;;4.17;;
5801;SDS011;2927;49.366;8.530;2023-04-29T12:29:50;4.73;;;3.63;;
5801;SDS011;2927;49.366;8.530;2023-04-29T12:32:16;2.70;;;2.50;;
5801;SDS011;2927;49.366;8.530;2023-04-29T12:34:45;2.27;;;2.13;;
5801;SDS011;2927;49.366;8.530;2023-04-29T12:37:11;6.20;;;2.70;;
5801;SDS011;2927;49.366;8.530;2023-04-29T12:39:37;2.50;;;2.30;;
5801;SDS011;2927;49.366;8.530;2023-04-29T12:42:03;3.20;;;3.00;;
5801;SDS011;2927;49.366;8.530;2023-04-29T12:44:34;3.10;;;2.90;;
5801;SDS011;2927;49.366;8.530;2023-04-29T12:47:10;2.97;;;2.73;;
5801;SDS011;2927;49.366;8.530;2023-04-29T12:49:37;2.20;;;2.10;;
5801;SDS011;2927;49.366;8.530;2023-04-29T12:52:07;2.60;;;2.40;;
5801;SDS011;2927;49.366;8.530;2023-04-29T12:54:34;4.27;;;2.73;;
5801;SDS011;2927;49.366;8.530;2023-04-29T12:57:00;3.57;;;2.67;;
5801;SDS011;2927;49.366;8.530;2023-04-29T12:59:26;4.83;;;3.27;;
5801;SDS011;2927;49.366;8.530;2023-04-29T13:01:52;2.60;;;2.20;;
5801;SDS011;2927;49.366;8.530;2023-04-29T13:04:17;3.20;;;2.40;;
5801;SDS011;2927;49.366;8.530;2023-04-29T13:06:43;2.93;;;2.70;;
5801;SDS011;2927;49.366;8.530;2023-04-29T13:09:09;3.67;;;3.30;;
5801;SDS011;2927;49.366;8.530;2023-04-29T13:11:37;5.20;;;3.30;;
5801;SDS011;2927;49.366;8.530;2023-04-29T13:14:03;4.90;;;3.10;;
5801;SDS011;2927;49.366;8.530;2023-04-29T13:16:32;7.93;;;4.73;;
5801;SDS011;2927;49.366;8.530;2023-04-29T13:18:58;3.73;;;3.03;;
5801;SDS011;2927;49.366;8.530;2023-04-29T13:21:27;5.03;;;3.80;;
5801;SDS011;2927;49.366;8.530;2023-04-29T13:23:53;3.77;;;3.30;;
5801;SDS011;2927;49.366;8.530;2023-04-29T13:26:19;4.33;;;3.90;;
5801;SDS011;2927;49.366;8.530;2023-04-29T13:28:44;6.90;;;3.63;;
5801;SDS011;2927;49.366;8.530;2023-04-29T13:31:10;4.13;;;3.73;;
5801;SDS011;2927;49.366;8.530;2023-04-29T13:33:36;3.43;;;2.80;;
5801;SDS011;2927;49.366;8.530;2023-04-29T13:36:01;5.40;;;3.47;;
5801;SDS011;2927;49.366;8.530;2023-04-29T13:38:27;3.93;;;3.53;;
5801;SDS011;2927;49.366;8.530;2023-04-29T13:40:52;4.53;;;4.13;;
5801;SDS011;2927;49.366;8.530;2023-04-29T13:43:21;4.37;;;4.00;;
5801;SDS011;2927;49.366;8.530;2023-04-29T13:45:46;4.57;;;4.17;;
5801;SDS011;2927;49.366;8.530;2023-04-29T13:48:12;5.00;;;4.20;;
5801;SDS011;2927;49.366;8.530;2023-04-29T13:50:37;4.93;;;3.20;;
5801;SDS011;2927;49.366;8.530;2023-04-29T13:53:05;4.20;;;3.80;;
5801;SDS011;2927;49.366;8.530;2023-04-29T13:55:31;4.40;;;3.93;;
5801;SDS011;2927;49.366;8.530;2023-04-29T13:57:59;6.70;;;4.03;;
5801;SDS011;2927;49.366;8.530;2023-04-29T14:00:24;4.40;;;4.00;;
5801;SDS011;2927;49.366;8.530;2023-04-29T14:02:50;4.10;;;3.30;;
5801;SDS011;2927;49.366;8.530;2023-04-29T14:05:16;5.73;;;4.03;;
5801;SDS011;2927;49.366;8.530;2023-04-29T14:07:41;4.63;;;3.70;;
5801;SDS011;2927;49.366;8.530;2023-04-29T14:10:07;4.73;;;4.23;;
5801;SDS011;2927;49.366;8.530;2023-04-29T14:12:33;4.30;;;3.90;;
5801;SDS011;2927;49.366;8.530;2023-04-29T14:14:58;7.37;;;3.73;;
5801;SDS011;2927;49.366;8.530;2023-04-29T14:17:24;5.30;;;4.07;;
5801;SDS011;2927;49.366;8.530;2023-04-29T14:19:49;4.90;;;3.83;;
5801;SDS011;2927;49.366;8.530;2023-04-29T14:22:15;5.00;;;4.23;;
5801;SDS011;2927;49.366;8.530;2023-04-29T14:24:40;3.33;;;3.03;;
5801;SDS011;2927;49.366;8.530;2023-04-29T14:27:06;4.20;;;3.80;;
5801;SDS011;2927;49.366;8.530;2023-04-29T14:29:32;6.57;;;4.07;;
5801;SDS011;2927;49.366;8.530;2023-04-29T14:31:57;3.93;;;3.63;;
5801;SDS011;2927;49.366;8.530;2023-04-29T14:34:23;6.03;;;4.70;;
5801;SDS011;2927;49.366;8.530;2023-04-29T14:36:48;5.37;;;4.30;;
5801;SDS011;2927;49.366;8.530;2023-04-29T14:39:14;6.07;;;4.40;;
5801;SDS011;2927;49.366;8.530;2023-04-29T14:41:39;5.00;;;4.23;;
5801;SDS011;2927;49.366;8.530;2023-04-29T14:44:05;6.53;;;4.57;;
5801;SDS011;2927;49.366;8.530;2023-04-29T14:46:30;5.97;;;4.30;;
5801;SDS011;2927;49.366;8.530;2023-04-29T14:48:56;5.83;;;3.83;;
5801;SDS011;2927;49.366;8.530;2023-04-29T14:51:22;6.43;;;4.40;;
5801;SDS011;2927;49.366;8.530;2023-04-29T14:53:47;4.93;;;4.10;;
5801;SDS011;2927;49.366;8.530;2023-04-29T14:56:14;4.80;;;3.90;;
5801;SDS011;2927;49.366;8.530;2023-04-29T14:58:41;4.27;;;3.70;;
5801;SDS011;2927;49.366;8.530;2023-04-29T15:01:07;4.03;;;3.70;;
5801;SDS011;2927;49.366;8.530;2023-04-29T15:03:32;3.37;;;2.97;;
5801;SDS011;2927;49.366;8.530;2023-04-29T15:06:00;4.43;;;4.03;;
5801;SDS011;2927;49.366;8.530;2023-04-29T15:08:27;7.30;;;3.93;;
5801;SDS011;2927;49.366;8.530;2023-04-29T15:10:53;5.90;;;4.87;;
5801;SDS011;2927;49.366;8.530;2023-04-29T15:13:18;6.20;;;5.20;;
5801;SDS011;2927;49.366;8.530;2023-04-29T15:15:44;6.60;;;5.43;;
5801;SDS011;2927;49.366;8.530;2023-04-29T15:18:09;7.83;;;5.27;;
5801;SDS011;2927;49.366;8.530;2023-04-29T15:20:35;6.93;;;5.83;;
5801;SDS011;2927;49.366;8.530;2023-04-29T15:23:01;5.87;;;4.53;;
5801;SDS011;2927;49.366;8.530;2023-04-29T15:25:28;6.97;;;5.40;;
5801;SDS011;2927;49.366;8.530;2023-04-29T15:27:53;5.07;;;4.57;;
5801;SDS011;2927;49.366;8.530;2023-04-29T15:30:19;6.30;;;4.83;;
5801;SDS011;2927;49.366;8.530;2023-04-29T15:32:45;6.77;;;5.43;;